createdAt,value
2022-10-15T00:00:12.891Z,35.22
2022-10-15T00:02:39.958Z,34.42
2022-10-15T00:05:08.231Z,34.15
2022-10-15T00:07:34.921Z,39.63
2022-10-15T00:10:01.893Z,38.63
2022-10-15T00:12:30.069Z,38.67
2022-10-15T00:14:56.804Z,36.03
2022-10-15T00:17:24.800Z,38.25
2022-10-15T00:19:51.647Z,41.22
2022-10-15T00:22:19.545Z,40.33
2022-10-15T00:24:46.172Z,38.03
2022-10-15T00:27:14.210Z,40.17
2022-10-15T00:29:41.027Z,38.47
2022-10-15T00:32:12.774Z,39.00
2022-10-15T00:34:43.126Z,42.65
2022-10-15T00:37:10.887Z,40.55
2022-10-15T00:39:41.407Z,49.15
2022-10-15T00:42:11.299Z,40.78
2022-10-15T00:44:49.752Z,42.63
2022-10-15T00:47:27.282Z,45.97
2022-10-15T00:50:02.781Z,47.63
2022-10-15T00:52:44.430Z,49.63
2022-10-15T00:55:19.366Z,44.85
2022-10-15T00:57:49.631Z,42.70
2022-10-15T01:00:17.561Z,44.83
2022-10-15T01:02:45.761Z,43.88
2022-10-15T01:05:14.895Z,51.70
2022-10-15T01:07:41.535Z,48.70
2022-10-15T01:10:10.654Z,43.10
2022-10-15T01:13:14.268Z,42.85
2022-10-15T01:15:51.066Z,45.55
2022-10-15T01:18:25.134Z,46.95
2022-10-15T01:21:19.529Z,49.95
2022-10-15T01:24:04.288Z,45.00
2022-10-15T01:26:46.454Z,50.40
2022-10-15T01:29:22.099Z,43.92
2022-10-15T01:32:15.653Z,42.05
2022-10-15T01:34:57.044Z,48.78
2022-10-15T01:37:52.707Z,44.83
2022-10-15T01:40:31.939Z,45.50
2022-10-15T01:43:00.902Z,48.28
2022-10-15T01:45:40.307Z,43.50
2022-10-15T01:48:12.179Z,46.67
2022-10-15T01:50:46.624Z,46.97
2022-10-15T01:53:19.563Z,45.22
2022-10-15T01:55:48.544Z,47.72
2022-10-15T01:58:17.680Z,43.35
2022-10-15T02:00:44.775Z,47.42
2022-10-15T02:03:11.452Z,46.25
2022-10-15T02:06:08.644Z,44.45
2022-10-15T02:09:02.635Z,46.95
2022-10-15T02:11:33.876Z,46.47
2022-10-15T02:14:06.210Z,43.88
2022-10-15T02:16:45.413Z,44.15
2022-10-15T02:19:18.136Z,43.83
2022-10-15T02:22:03.259Z,47.47
2022-10-15T02:24:55.549Z,51.53
2022-10-15T02:27:27.196Z,43.92
2022-10-15T02:29:56.288Z,46.20
2022-10-15T02:32:45.862Z,48.63
2022-10-15T02:35:12.688Z,47.83
2022-10-15T02:37:44.687Z,45.90
2022-10-15T02:40:12.067Z,46.33
2022-10-15T02:42:38.896Z,47.30
2022-10-15T02:45:06.144Z,47.42
2022-10-15T02:47:32.803Z,46.05
2022-10-15T02:49:59.414Z,50.13
2022-10-15T02:52:26.333Z,45.40
2022-10-15T02:54:53.335Z,47.92
2022-10-15T02:57:19.987Z,42.63
2022-10-15T02:59:46.601Z,44.47
2022-10-15T03:02:16.782Z,49.10
2022-10-15T03:04:45.933Z,45.80
2022-10-15T03:07:13.070Z,45.30
2022-10-15T03:09:41.379Z,44.60
2022-10-15T03:12:09.457Z,42.92
2022-10-15T03:14:38.369Z,45.88
2022-10-15T03:17:09.452Z,42.30
2022-10-15T03:19:38.401Z,44.05
2022-10-15T03:22:07.358Z,44.42
2022-10-15T03:24:34.237Z,47.80
2022-10-15T03:27:02.971Z,45.15
2022-10-15T03:29:31.787Z,48.58
2022-10-15T03:31:58.486Z,45.72
2022-10-15T03:34:25.332Z,49.75
2022-10-15T03:36:51.953Z,46.25
2022-10-15T03:39:18.663Z,44.00
2022-10-15T03:41:45.343Z,50.60
2022-10-15T03:44:12.065Z,50.75
2022-10-15T03:46:38.701Z,52.42
2022-10-15T03:49:05.528Z,48.67
2022-10-15T03:51:32.175Z,46.50
2022-10-15T03:53:59.017Z,49.45
2022-10-15T03:56:25.783Z,51.25
2022-10-15T03:58:52.454Z,46.45
2022-10-15T04:01:19.763Z,46.70
2022-10-15T04:03:46.883Z,48.33
2022-10-15T04:06:13.584Z,48.22
2022-10-15T04:08:41.649Z,47.22
2022-10-15T04:11:08.811Z,48.78
2022-10-15T04:13:35.840Z,48.47
2022-10-15T04:16:05.327Z,45.83
2022-10-15T04:18:32.378Z,48.55
2022-10-15T04:21:00.569Z,43.53
2022-10-15T04:23:27.629Z,48.80
2022-10-15T04:26:01.872Z,46.97
2022-10-15T04:28:30.052Z,48.10
2022-10-15T04:31:01.271Z,48.78
2022-10-15T04:33:29.435Z,47.13
2022-10-15T04:36:11.356Z,52.08
2022-10-15T04:38:39.459Z,51.05
2022-10-15T04:41:09.099Z,48.22
2022-10-15T04:43:37.353Z,46.08
2022-10-15T04:46:05.998Z,44.97
2022-10-15T04:48:37.623Z,46.80
2022-10-15T04:51:14.281Z,50.28
2022-10-15T04:53:42.814Z,47.83
2022-10-15T04:56:14.833Z,44.47
2022-10-15T04:58:43.014Z,44.60
2022-10-15T05:01:12.951Z,46.00
2022-10-15T05:03:45.126Z,42.63
2022-10-15T05:06:15.249Z,42.75
2022-10-15T05:08:41.925Z,44.05
2022-10-15T05:11:11.792Z,41.53
2022-10-15T05:13:39.864Z,43.53
2022-10-15T05:16:16.606Z,42.95
2022-10-15T05:18:46.890Z,39.40
2022-10-15T05:21:14.179Z,42.58
2022-10-15T05:23:41.463Z,43.78
2022-10-15T05:26:13.385Z,43.03
2022-10-15T05:28:41.821Z,42.42
2022-10-15T05:31:16.170Z,40.10
2022-10-15T05:33:46.117Z,41.10
2022-10-15T05:36:15.126Z,37.17
2022-10-15T05:38:44.165Z,38.25
2022-10-15T05:41:10.893Z,42.35
2022-10-15T05:43:41.311Z,39.35
2022-10-15T05:46:09.589Z,38.92
2022-10-15T05:48:37.320Z,39.42
2022-10-15T05:51:07.387Z,39.78
2022-10-15T05:53:35.151Z,42.55
2022-10-15T05:56:03.538Z,35.67
2022-10-15T05:58:37.172Z,37.65
2022-10-15T06:01:09.512Z,43.20
2022-10-15T06:03:38.557Z,40.50
2022-10-15T06:06:05.714Z,37.97
2022-10-15T06:08:35.565Z,37.58
2022-10-15T06:11:06.809Z,34.20
2022-10-15T06:13:42.307Z,35.88
2022-10-15T06:16:09.510Z,38.47
2022-10-15T06:18:37.381Z,33.30
2022-10-15T06:21:05.114Z,31.25
2022-10-15T06:23:32.094Z,32.90
2022-10-15T06:26:05.701Z,33.13
2022-10-15T06:28:33.562Z,34.45
2022-10-15T06:31:00.846Z,31.85
2022-10-15T06:33:28.765Z,33.65
2022-10-15T06:35:55.820Z,32.40
2022-10-15T06:38:22.466Z,29.90
2022-10-15T06:40:49.349Z,32.45
2022-10-15T06:43:15.991Z,31.10
2022-10-15T06:45:42.701Z,32.55
2022-10-15T06:48:09.842Z,29.42
2022-10-15T06:50:38.648Z,30.48
2022-10-15T06:53:06.142Z,29.88
2022-10-15T06:55:33.448Z,30.67
2022-10-15T06:58:00.208Z,31.45
2022-10-15T07:00:27.564Z,31.67
2022-10-15T07:02:54.308Z,33.22
2022-10-15T07:05:21.253Z,33.30
2022-10-15T07:07:55.195Z,32.10
2022-10-15T07:10:23.167Z,31.35
2022-10-15T07:12:49.970Z,28.75
2022-10-15T07:15:17.045Z,27.67
2022-10-15T07:17:51.247Z,31.13
2022-10-15T07:20:21.800Z,28.67
2022-10-15T07:22:50.044Z,28.13
2022-10-15T07:25:16.912Z,26.35
2022-10-15T07:27:44.792Z,27.65
2022-10-15T07:30:11.888Z,24.38
2022-10-15T07:32:39.627Z,25.45
2022-10-15T07:35:07.744Z,25.20
2022-10-15T07:37:35.094Z,25.65
2022-10-15T07:40:03.299Z,26.75
2022-10-15T07:42:29.893Z,26.63
2022-10-15T07:44:59.232Z,23.83
2022-10-15T07:47:26.985Z,28.65
2022-10-15T07:49:54.819Z,27.63
2022-10-15T07:52:21.679Z,23.38
2022-10-15T07:54:51.213Z,24.13
2022-10-15T07:57:20.592Z,26.30
2022-10-15T07:59:47.254Z,22.90
2022-10-15T08:02:18.172Z,23.42
2022-10-15T08:04:45.020Z,22.85
2022-10-15T08:07:11.648Z,23.98
2022-10-15T08:09:38.374Z,23.65
2022-10-15T08:12:05.567Z,23.00
2022-10-15T08:14:33.034Z,23.20
2022-10-15T08:17:00.961Z,23.52
2022-10-15T08:19:27.567Z,25.20
2022-10-15T08:21:54.277Z,21.63
2022-10-15T08:24:20.987Z,21.10
2022-10-15T08:26:47.593Z,20.25
2022-10-15T08:29:14.291Z,21.05
2022-10-15T08:31:42.535Z,19.23
2022-10-15T08:34:09.151Z,20.20
2022-10-15T08:36:36.172Z,19.77
2022-10-15T08:39:03.341Z,20.33
2022-10-15T08:41:35.921Z,18.25
2022-10-15T08:44:02.932Z,20.95
2022-10-15T08:46:37.049Z,22.73
2022-10-15T08:49:06.262Z,19.10
2022-10-15T08:51:44.647Z,17.80
2022-10-15T08:54:19.243Z,16.65
2022-10-15T08:56:53.481Z,18.15
2022-10-15T08:59:43.377Z,19.05
2022-10-15T09:02:38.328Z,15.85
2022-10-15T09:05:42.287Z,18.08
2022-10-15T09:08:39.853Z,14.32
2022-10-15T09:11:15.649Z,16.23
2022-10-15T09:13:44.159Z,15.93
2022-10-15T09:16:20.206Z,16.40
2022-10-15T09:18:49.886Z,15.93
2022-10-15T09:21:16.884Z,15.98
2022-10-15T09:23:44.387Z,18.02
2022-10-15T09:26:20.078Z,16.85
2022-10-15T09:31:45.760Z,15.63
2022-10-15T09:34:23.906Z,14.82
2022-10-15T09:36:59.494Z,16.38
2022-10-15T09:39:52.205Z,16.67
2022-10-15T09:42:36.426Z,16.48
2022-10-15T09:45:07.030Z,16.05
2022-10-15T09:47:35.982Z,15.77
2022-10-15T09:50:08.235Z,16.00
2022-10-15T09:53:05.757Z,16.80
2022-10-15T09:55:42.821Z,13.85
2022-10-15T09:58:26.134Z,16.25
2022-10-15T10:00:57.747Z,12.90
2022-10-15T10:03:27.087Z,13.52
2022-10-15T10:06:14.209Z,11.73
2022-10-15T10:11:22.505Z,15.65
2022-10-15T10:13:49.046Z,13.75
2022-10-15T10:16:17.895Z,12.13
2022-10-15T10:19:00.619Z,16.98
2022-10-15T10:21:34.723Z,13.70
2022-10-15T10:24:25.752Z,13.20
2022-10-15T10:26:52.558Z,11.02
2022-10-15T10:29:35.962Z,8.35
2022-10-15T10:32:21.955Z,9.60
2022-10-15T10:34:52.465Z,11.10
2022-10-15T10:37:19.510Z,10.38
2022-10-15T10:39:51.765Z,10.45
2022-10-15T10:42:18.350Z,10.40
2022-10-15T10:44:44.943Z,9.32
2022-10-15T10:47:15.159Z,8.32
2022-10-15T10:50:02.032Z,9.10
2022-10-15T10:52:36.229Z,12.93
2022-10-15T10:55:20.784Z,8.95
2022-10-15T10:57:56.049Z,11.27
2022-10-15T11:00:48.549Z,11.50
2022-10-15T11:03:21.319Z,9.20
2022-10-15T11:05:53.283Z,9.88
2022-10-15T11:08:36.239Z,10.68
2022-10-15T11:11:25.007Z,12.02
2022-10-15T11:14:20.359Z,9.80
2022-10-15T11:17:14.595Z,9.68
2022-10-15T11:20:12.304Z,8.45
2022-10-15T11:23:05.777Z,9.52
2022-10-15T11:26:00.058Z,9.30
2022-10-15T11:29:06.437Z,11.18
2022-10-15T11:32:02.390Z,10.77
2022-10-15T11:34:42.085Z,8.35
2022-10-15T11:37:40.371Z,8.48
2022-10-15T11:43:03.714Z,8.43
2022-10-15T11:45:55.109Z,10.85
2022-10-15T11:49:18.680Z,13.18
2022-10-15T11:52:16.570Z,7.78
2022-10-15T11:55:06.705Z,6.90
2022-10-15T11:57:36.789Z,7.22
2022-10-15T12:00:24.231Z,7.55
2022-10-15T12:03:00.857Z,7.32
2022-10-15T12:05:42.971Z,7.32
2022-10-15T12:08:12.406Z,7.90
2022-10-15T12:10:54.410Z,6.10
2022-10-15T12:13:36.984Z,9.77
2022-10-15T12:16:20.518Z,6.88
2022-10-15T12:18:53.024Z,5.97
2022-10-15T12:21:44.791Z,6.40
2022-10-15T12:24:50.462Z,6.40
2022-10-15T12:27:20.224Z,6.43
2022-10-15T12:30:00.528Z,6.97
2022-10-15T12:32:29.873Z,5.78
2022-10-15T12:34:59.342Z,6.70
2022-10-15T12:37:32.402Z,6.53
2022-10-15T12:40:02.590Z,8.02
2022-10-15T12:42:36.871Z,6.57
2022-10-15T12:45:07.868Z,7.18
2022-10-15T12:48:06.313Z,5.88
2022-10-15T12:50:36.060Z,4.80
2022-10-15T12:53:05.414Z,5.47
2022-10-15T12:55:40.543Z,8.35
2022-10-15T12:58:33.107Z,9.90
2022-10-15T13:01:13.730Z,7.43
2022-10-15T13:03:48.390Z,8.10
2022-10-15T13:06:23.249Z,8.75
2022-10-15T13:08:49.860Z,6.50
2022-10-15T13:11:33.030Z,8.13
2022-10-15T13:14:21.469Z,5.75
2022-10-15T13:16:48.787Z,8.73
2022-10-15T13:19:32.631Z,5.78
2022-10-15T13:22:04.905Z,6.72
2022-10-15T13:24:41.854Z,10.13
2022-10-15T13:27:24.813Z,8.27
2022-10-15T13:30:02.756Z,6.28
2022-10-15T13:32:33.515Z,7.00
2022-10-15T13:35:02.117Z,5.53
2022-10-15T13:37:31.978Z,9.25
2022-10-15T13:40:01.882Z,6.50
2022-10-15T13:42:33.009Z,6.72
2022-10-15T13:45:00.986Z,4.90
2022-10-15T13:47:33.565Z,7.25
2022-10-15T13:50:18.938Z,6.15
2022-10-15T13:52:58.343Z,6.72
2022-10-15T13:55:30.834Z,5.50
2022-10-15T13:58:04.909Z,3.95
2022-10-15T14:00:35.806Z,5.07
2022-10-15T14:03:23.616Z,5.20
2022-10-15T14:05:52.825Z,7.07
2022-10-15T14:08:26.173Z,6.75
2022-10-15T14:10:56.976Z,6.05
2022-10-15T14:13:24.160Z,4.00
2022-10-15T14:16:21.305Z,5.15
2022-10-15T14:18:57.842Z,4.65
2022-10-15T14:21:26.526Z,5.72
2022-10-15T14:24:02.093Z,3.70
2022-10-15T14:28:55.565Z,6.25
2022-10-15T14:31:37.616Z,4.68
2022-10-15T14:34:05.191Z,3.95
2022-10-15T14:36:40.721Z,6.35
2022-10-15T14:39:41.296Z,8.18
2022-10-15T14:42:27.851Z,4.32
2022-10-15T14:44:54.537Z,3.05
2022-10-15T14:47:24.687Z,4.80
2022-10-15T14:49:55.010Z,5.70
2022-10-15T14:52:22.714Z,3.63
2022-10-15T14:55:16.744Z,4.60
2022-10-15T14:57:45.350Z,6.80
2022-10-15T15:00:24.394Z,3.30
2022-10-15T15:02:51.225Z,5.32
2022-10-15T15:05:21.837Z,4.72
2022-10-15T15:07:48.547Z,5.78
2022-10-15T15:10:15.701Z,5.55
2022-10-15T15:12:48.893Z,4.22
2022-10-15T15:15:17.263Z,5.65
2022-10-15T15:17:43.905Z,7.20
2022-10-15T15:20:11.594Z,8.18
2022-10-15T15:22:39.060Z,6.30
2022-10-15T15:25:36.125Z,6.07
2022-10-15T15:28:03.953Z,5.93
2022-10-15T15:30:32.371Z,6.90
2022-10-15T15:32:59.044Z,5.25
2022-10-15T15:35:42.982Z,5.57
2022-10-15T15:38:12.045Z,6.93
2022-10-15T15:40:40.060Z,5.22
2022-10-15T15:43:06.750Z,8.23
2022-10-15T15:45:36.751Z,6.50
2022-10-15T15:48:07.237Z,6.82
2022-10-15T15:50:36.404Z,7.32
2022-10-15T15:53:15.962Z,5.15
2022-10-15T15:55:46.290Z,6.22
2022-10-15T15:58:14.134Z,5.82
2022-10-15T16:00:43.104Z,6.43
2022-10-15T16:03:14.318Z,9.60
2022-10-15T16:05:42.515Z,8.93
2022-10-15T16:08:10.391Z,8.57
2022-10-15T16:10:40.723Z,7.13
2022-10-15T16:13:08.651Z,7.40
2022-10-15T16:15:38.572Z,9.55
2022-10-15T16:18:08.741Z,10.05
2022-10-15T16:20:48.744Z,10.98
2022-10-15T16:23:16.294Z,9.07
2022-10-15T16:25:43.679Z,10.38
2022-10-15T16:28:10.373Z,8.70
2022-10-15T16:30:37.444Z,12.05
2022-10-15T16:33:04.184Z,10.18
2022-10-15T16:35:30.866Z,11.85
2022-10-15T16:37:57.571Z,11.80
2022-10-15T16:40:24.222Z,10.80
2022-10-15T16:42:50.816Z,9.45
2022-10-15T16:45:17.745Z,9.35
2022-10-15T16:47:44.485Z,10.85
2022-10-15T16:50:11.117Z,9.93
2022-10-15T16:52:39.843Z,9.60
2022-10-15T16:55:08.670Z,13.20
2022-10-15T16:57:39.088Z,15.05
2022-10-15T17:00:07.439Z,11.55
2022-10-15T17:02:34.042Z,12.85
2022-10-15T17:05:00.680Z,15.70
2022-10-15T17:07:27.507Z,16.45
2022-10-15T17:09:54.421Z,16.42
2022-10-15T17:12:21.018Z,16.48
2022-10-15T17:14:51.038Z,13.73
2022-10-15T17:17:17.781Z,16.85
2022-10-15T17:19:44.484Z,18.17
2022-10-15T17:22:11.144Z,16.02
2022-10-15T17:24:37.841Z,16.02
2022-10-15T17:27:05.299Z,17.98
2022-10-15T17:29:33.294Z,18.48
2022-10-15T17:32:01.585Z,18.20
2022-10-15T17:34:28.221Z,24.48
2022-10-15T17:36:54.955Z,18.92
2022-10-15T17:39:21.566Z,20.10
2022-10-15T17:41:49.689Z,19.50
2022-10-15T17:44:16.367Z,19.48
2022-10-15T17:46:43.037Z,16.92
2022-10-15T17:49:11.071Z,17.90
2022-10-15T17:51:39.014Z,17.85
2022-10-15T17:54:10.716Z,16.13
2022-10-15T17:56:40.534Z,23.17
2022-10-15T17:59:12.754Z,24.40
2022-10-15T18:01:57.890Z,21.75
2022-10-15T18:04:28.215Z,20.45
2022-10-15T18:06:55.639Z,19.38
2022-10-15T18:09:23.915Z,19.02
2022-10-15T18:11:50.667Z,18.45
2022-10-15T18:14:18.507Z,20.02
2022-10-15T18:16:47.234Z,20.65
2022-10-15T18:19:15.151Z,16.40
2022-10-15T18:21:48.542Z,17.58
2022-10-15T18:24:19.953Z,17.83
2022-10-15T18:26:49.726Z,16.27
2022-10-15T18:29:16.716Z,17.75
2022-10-15T18:31:44.498Z,15.77
2022-10-15T18:34:12.610Z,16.73
2022-10-15T18:36:40.217Z,20.02
2022-10-15T18:39:09.820Z,17.63
2022-10-15T18:41:37.939Z,16.52
2022-10-15T18:44:11.777Z,19.30
2022-10-15T18:46:39.911Z,13.75
2022-10-15T18:49:09.158Z,13.68
2022-10-15T18:51:37.757Z,14.70
2022-10-15T18:54:06.183Z,16.85
2022-10-15T18:56:36.635Z,12.45
2022-10-15T18:59:04.707Z,14.13
2022-10-15T19:01:33.740Z,12.75
2022-10-15T19:04:14.118Z,15.63
2022-10-15T19:06:44.121Z,13.05
2022-10-15T19:09:15.977Z,12.93
2022-10-15T19:11:45.878Z,12.73
2022-10-15T19:14:13.357Z,13.60
2022-10-15T19:16:40.034Z,17.48
2022-10-15T19:19:06.648Z,16.30
2022-10-15T19:21:34.365Z,16.52
2022-10-15T19:24:04.840Z,17.25
2022-10-15T19:26:34.928Z,11.80
2022-10-15T19:29:05.264Z,14.30
2022-10-15T19:31:44.722Z,10.65
2022-10-15T19:34:12.090Z,12.32
2022-10-15T19:36:41.830Z,10.82
2022-10-15T19:39:14.376Z,11.27
2022-10-15T19:41:43.780Z,9.70
2022-10-15T19:44:11.697Z,14.63
2022-10-15T19:46:39.287Z,8.93
2022-10-15T19:49:08.798Z,8.93
2022-10-15T19:51:36.845Z,9.05
2022-10-15T19:54:04.073Z,9.32
2022-10-15T19:56:32.926Z,9.90
2022-10-15T19:59:03.085Z,8.95
2022-10-15T20:01:30.918Z,12.32
2022-10-15T20:04:01.639Z,10.20
2022-10-15T20:06:33.536Z,9.52
2022-10-15T20:09:00.153Z,9.77
2022-10-15T20:11:28.114Z,9.50
2022-10-15T20:13:54.740Z,8.98
2022-10-15T20:16:23.298Z,9.57
2022-10-15T20:18:52.155Z,10.68
2022-10-15T20:21:18.842Z,12.38
2022-10-15T20:23:45.526Z,12.98
2022-10-15T20:26:15.194Z,13.68
2022-10-15T20:28:44.618Z,11.02
2022-10-15T20:31:16.794Z,9.68
2022-10-15T20:33:44.734Z,9.80
2022-10-15T20:36:18.857Z,14.00
2022-10-15T20:38:48.803Z,9.68
2022-10-15T20:41:17.547Z,8.82
2022-10-15T20:43:45.437Z,8.05
2022-10-15T20:46:14.167Z,8.40
2022-10-15T20:48:41.475Z,10.10
2022-10-15T20:51:11.021Z,10.48
2022-10-15T20:53:38.150Z,12.35
2022-10-15T20:56:05.046Z,9.02
2022-10-15T20:58:31.909Z,11.10
2022-10-15T21:00:58.610Z,10.85
2022-10-15T21:03:25.871Z,12.00
2022-10-15T21:05:52.801Z,8.80
2022-10-15T21:08:19.462Z,10.13
2022-10-15T21:10:46.156Z,8.90
2022-10-15T21:13:12.772Z,10.57
2022-10-15T21:15:39.410Z,13.00
2022-10-15T21:18:07.159Z,9.23
2022-10-15T21:20:33.781Z,8.93
2022-10-15T21:23:01.512Z,9.07
2022-10-15T21:25:28.216Z,8.23
2022-10-15T21:27:56.151Z,12.45
2022-10-15T21:30:22.832Z,11.80
2022-10-15T21:32:52.948Z,10.45
2022-10-15T21:35:19.564Z,9.80
2022-10-15T21:37:46.201Z,9.98
2022-10-15T21:40:12.870Z,9.45
2022-10-15T21:42:39.518Z,8.52
2022-10-15T21:45:06.558Z,11.48
2022-10-15T21:47:33.293Z,12.00
2022-10-15T21:49:59.908Z,11.60
2022-10-15T21:52:26.525Z,10.38
2022-10-15T21:54:53.160Z,12.20
2022-10-15T21:57:19.759Z,11.35
2022-10-15T21:59:46.421Z,13.65
2022-10-15T22:02:13.280Z,11.07
2022-10-15T22:04:40.113Z,11.07
2022-10-15T22:07:06.714Z,13.38
2022-10-15T22:09:33.347Z,10.95
2022-10-15T22:12:00.040Z,11.20
2022-10-15T22:14:26.678Z,13.10
2022-10-15T22:16:53.293Z,10.20
2022-10-15T22:19:19.916Z,11.80
2022-10-15T22:21:46.552Z,9.10
2022-10-15T22:24:15.852Z,12.93
2022-10-15T22:26:49.388Z,11.98
2022-10-15T22:29:24.843Z,13.23
2022-10-15T22:31:52.670Z,12.60
2022-10-15T22:34:21.797Z,9.90
2022-10-15T22:36:48.699Z,13.05
2022-10-15T22:39:16.974Z,10.02
2022-10-15T22:41:45.203Z,12.10
2022-10-15T22:44:18.813Z,9.27
2022-10-15T22:46:56.248Z,13.25
2022-10-15T22:49:24.126Z,8.10
2022-10-15T22:51:52.278Z,8.88
2022-10-15T22:54:23.890Z,9.57
2022-10-15T22:56:56.271Z,9.35
2022-10-15T22:59:24.129Z,7.93
2022-10-15T23:01:50.741Z,9.23
2022-10-15T23:04:17.759Z,10.90
2022-10-15T23:06:44.369Z,8.20
2022-10-15T23:09:11.909Z,8.40
2022-10-15T23:11:40.052Z,7.55
2022-10-15T23:14:11.103Z,9.40
2022-10-15T23:16:40.386Z,8.50
2022-10-15T23:19:12.258Z,8.05
2022-10-15T23:21:55.504Z,11.18
2022-10-15T23:24:24.865Z,10.45
2022-10-15T23:26:52.196Z,7.35
2022-10-15T23:29:21.396Z,9.38
2022-10-15T23:31:48.777Z,8.98
2022-10-15T23:34:18.454Z,8.15
2022-10-15T23:36:45.377Z,10.20
2022-10-15T23:39:19.732Z,8.93
2022-10-15T23:41:46.400Z,9.82
2022-10-15T23:44:13.400Z,6.68
2022-10-15T23:46:40.515Z,8.45
2022-10-15T23:49:07.280Z,8.15
2022-10-15T23:51:33.978Z,11.60
2022-10-15T23:54:01.618Z,7.40
2022-10-15T23:56:29.832Z,7.78
2022-10-15T23:58:59.394Z,6.28
